createdAt,value
2023-01-07T00:00:09.900Z,5.34
2023-01-07T00:03:00.834Z,5.32
2023-01-07T00:05:29.100Z,5.29
2023-01-07T00:08:00.427Z,5.26
2023-01-07T00:10:28.487Z,5.27
2023-01-07T00:12:56.558Z,5.27
2023-01-07T00:15:24.562Z,5.28
2023-01-07T00:17:52.748Z,5.24
2023-01-07T00:20:20.846Z,5.24
2023-01-07T00:22:52.409Z,5.28
2023-01-07T00:25:20.400Z,5.33
2023-01-07T00:27:48.548Z,5.38
2023-01-07T00:30:16.649Z,5.43
2023-01-07T00:32:57.955Z,5.45
2023-01-07T00:35:28.495Z,5.48
2023-01-07T00:37:56.682Z,5.52
2023-01-07T00:40:27.274Z,5.58
2023-01-07T00:42:55.363Z,5.61
2023-01-07T00:45:25.567Z,5.68
2023-01-07T00:48:00.173Z,5.76
2023-01-07T00:50:31.353Z,5.80
2023-01-07T00:52:59.729Z,5.85
2023-01-07T00:55:32.473Z,5.90
2023-01-07T00:58:00.621Z,5.95
2023-01-07T01:00:29.155Z,5.99
2023-01-07T01:02:59.723Z,6.02
2023-01-07T01:05:27.845Z,6.07
2023-01-07T01:07:55.987Z,6.12
2023-01-07T01:10:24.036Z,6.15
2023-01-07T01:12:52.276Z,6.16
2023-01-07T01:15:20.507Z,6.18
2023-01-07T01:17:52.766Z,6.19
2023-01-07T01:20:23.488Z,6.23
2023-01-07T01:22:51.616Z,6.23
2023-01-07T01:25:19.665Z,6.22
2023-01-07T01:27:47.816Z,6.21
2023-01-07T01:30:16.241Z,6.14
2023-01-07T01:32:48.589Z,6.08
2023-01-07T01:35:17.174Z,6.04
2023-01-07T01:37:45.367Z,6.06
2023-01-07T01:40:16.430Z,6.10
2023-01-07T01:42:44.582Z,6.14
2023-01-07T01:45:17.135Z,6.13
2023-01-07T01:48:00.860Z,6.10
2023-01-07T01:50:34.938Z,6.12
2023-01-07T01:53:12.342Z,6.19
2023-01-07T01:56:00.829Z,6.23
2023-01-07T01:58:53.554Z,6.24
2023-01-07T02:01:25.391Z,6.21
2023-01-07T02:03:57.805Z,6.25
2023-01-07T02:06:33.016Z,6.26
2023-01-07T02:09:01.322Z,6.25
2023-01-07T02:12:02.686Z,6.23
2023-01-07T02:14:59.824Z,6.11
2023-01-07T02:17:34.036Z,6.01
2023-01-07T02:20:05.055Z,5.98
2023-01-07T02:23:11.274Z,5.98
2023-01-07T02:25:51.575Z,5.93
2023-01-07T02:28:28.904Z,5.89
2023-01-07T02:31:41.673Z,5.90
2023-01-07T02:34:52.099Z,5.94
2023-01-07T02:37:29.993Z,5.97
2023-01-07T02:40:17.915Z,6.02
2023-01-07T02:43:03.844Z,6.10
2023-01-07T02:45:58.542Z,6.12
2023-01-07T02:48:28.505Z,6.15
2023-01-07T02:50:56.832Z,6.21
2023-01-07T02:53:25.009Z,6.22
2023-01-07T02:56:18.248Z,6.20
2023-01-07T02:59:51.363Z,6.21
2023-01-07T03:03:03.751Z,6.26
2023-01-07T03:05:37.861Z,6.32
2023-01-07T03:08:30.349Z,6.34
2023-01-07T03:11:08.540Z,6.32
2023-01-07T03:14:08.006Z,6.37
2023-01-07T03:16:49.535Z,6.42
2023-01-07T03:19:22.575Z,6.42
2023-01-07T03:21:53.733Z,6.44
2023-01-07T03:24:27.443Z,6.37
2023-01-07T03:27:01.736Z,6.30
2023-01-07T03:29:32.599Z,6.30
2023-01-07T03:32:20.594Z,6.30
2023-01-07T03:34:51.159Z,6.27
2023-01-07T03:37:24.620Z,6.21
2023-01-07T03:39:55.319Z,6.19
2023-01-07T03:42:41.755Z,6.21
2023-01-07T03:45:21.989Z,6.23
2023-01-07T03:47:53.461Z,6.22
2023-01-07T03:50:24.411Z,6.27
2023-01-07T03:52:55.122Z,6.31
2023-01-07T03:55:26.289Z,6.31
2023-01-07T03:57:58.649Z,6.30
2023-01-07T04:00:26.953Z,6.35
2023-01-07T04:03:01.576Z,6.39
2023-01-07T04:05:36.236Z,6.43
2023-01-07T04:08:04.511Z,6.48
2023-01-07T04:10:37.095Z,6.46
2023-01-07T04:13:05.250Z,6.40
2023-01-07T04:15:33.467Z,6.33
2023-01-07T04:18:01.516Z,6.32
2023-01-07T04:20:31.261Z,6.34
2023-01-07T04:23:01.954Z,6.35
2023-01-07T04:25:32.481Z,6.38
2023-01-07T04:28:03.473Z,6.38
2023-01-07T04:30:33.319Z,6.34
2023-01-07T04:33:01.500Z,6.29
2023-01-07T04:35:29.669Z,6.21
2023-01-07T04:38:00.376Z,6.07
2023-01-07T04:40:28.389Z,5.97
2023-01-07T04:42:56.664Z,5.84
2023-01-07T04:45:24.674Z,5.69
2023-01-07T04:47:57.486Z,5.57
2023-01-07T04:50:25.631Z,5.45
2023-01-07T04:52:53.802Z,5.37
2023-01-07T04:55:25.264Z,5.27
2023-01-07T04:57:53.424Z,5.19
2023-01-07T05:00:23.924Z,5.10
2023-01-07T05:02:52.637Z,5.05
2023-01-07T05:05:23.354Z,5.03
2023-01-07T05:07:51.527Z,5.01
2023-01-07T05:10:20.462Z,5.00
2023-01-07T05:12:49.192Z,4.94
2023-01-07T05:15:20.290Z,4.87
2023-01-07T05:17:48.466Z,4.80
2023-01-07T05:20:18.861Z,4.78
2023-01-07T05:22:50.342Z,4.80
2023-01-07T05:25:20.765Z,4.83
2023-01-07T05:27:49.118Z,4.87
2023-01-07T05:30:17.466Z,4.91
2023-01-07T05:32:45.732Z,4.99
2023-01-07T05:35:16.561Z,4.99
2023-01-07T05:37:47.113Z,5.00
2023-01-07T05:40:15.197Z,5.06
2023-01-07T05:42:45.918Z,5.12
2023-01-07T05:45:14.069Z,5.16
2023-01-07T05:47:45.067Z,5.18
2023-01-07T05:50:13.130Z,5.18
2023-01-07T05:52:41.168Z,5.19
2023-01-07T05:55:09.610Z,5.22
2023-01-07T05:57:37.759Z,5.22
2023-01-07T06:00:06.631Z,5.22
2023-01-07T06:02:42.202Z,5.25
2023-01-07T06:05:10.714Z,5.28
2023-01-07T06:07:41.487Z,5.32
2023-01-07T06:10:13.413Z,5.38
2023-01-07T06:12:41.441Z,5.43
2023-01-07T06:15:09.800Z,5.45
2023-01-07T06:17:38.449Z,5.47
2023-01-07T06:20:06.964Z,5.48
2023-01-07T06:22:35.404Z,5.45
2023-01-07T06:25:06.058Z,5.42
2023-01-07T06:27:34.125Z,5.43
2023-01-07T06:30:05.418Z,5.36
2023-01-07T06:32:40.910Z,5.34
2023-01-07T06:35:12.250Z,5.38
2023-01-07T06:37:40.530Z,5.37
2023-01-07T06:40:08.972Z,5.45
2023-01-07T06:42:37.122Z,5.48
2023-01-07T06:45:05.683Z,5.46
2023-01-07T06:47:34.033Z,5.44
2023-01-07T06:50:04.864Z,5.44
2023-01-07T06:52:33.938Z,5.37
2023-01-07T06:55:02.108Z,5.34
2023-01-07T06:57:30.235Z,5.33
2023-01-07T06:59:58.320Z,5.32
2023-01-07T07:02:30.073Z,5.36
2023-01-07T07:04:58.578Z,5.43
2023-01-07T07:07:26.566Z,5.45
2023-01-07T07:09:54.619Z,5.39
2023-01-07T07:12:22.599Z,5.35
2023-01-07T07:14:50.704Z,5.36
2023-01-07T07:17:18.572Z,5.42
2023-01-07T07:19:46.607Z,5.47
2023-01-07T07:22:14.671Z,5.50
2023-01-07T07:24:42.745Z,5.51
2023-01-07T07:27:10.758Z,5.56
2023-01-07T07:29:38.698Z,5.60
2023-01-07T07:32:06.705Z,5.61
2023-01-07T07:34:37.208Z,5.64
2023-01-07T07:37:05.290Z,5.62
2023-01-07T07:39:36.014Z,5.63
2023-01-07T07:42:06.740Z,5.65
2023-01-07T07:44:34.832Z,5.66
2023-01-07T07:47:05.164Z,5.70
2023-01-07T07:49:33.276Z,5.73
2023-01-07T07:52:01.199Z,5.69
2023-01-07T07:54:29.464Z,5.65
2023-01-07T07:57:00.622Z,5.66
2023-01-07T07:59:28.710Z,5.66
2023-01-07T08:01:56.981Z,5.68
2023-01-07T08:04:25.274Z,5.66
2023-01-07T08:06:53.314Z,5.69
2023-01-07T08:09:21.417Z,5.74
2023-01-07T08:11:49.404Z,5.78
2023-01-07T08:14:20.092Z,5.81
2023-01-07T08:16:48.055Z,5.82
2023-01-07T08:19:16.021Z,5.90
2023-01-07T08:21:43.964Z,5.93
2023-01-07T08:24:12.057Z,5.96
2023-01-07T08:26:40.088Z,6.00
2023-01-07T08:29:08.915Z,6.02
2023-01-07T08:31:36.953Z,6.06
2023-01-07T08:34:05.066Z,6.13
2023-01-07T08:36:32.999Z,6.20
2023-01-07T08:39:03.748Z,6.25
2023-01-07T08:41:31.740Z,6.29
2023-01-07T08:43:59.774Z,6.31
2023-01-07T08:46:28.038Z,6.25
2023-01-07T08:48:56.023Z,6.20
2023-01-07T08:51:24.113Z,6.10
2023-01-07T08:53:52.143Z,6.06
2023-01-07T08:56:22.487Z,6.05
2023-01-07T08:58:50.656Z,6.10
2023-01-07T09:01:18.872Z,6.18
2023-01-07T09:03:49.079Z,6.26
2023-01-07T09:06:17.184Z,6.31
2023-01-07T09:08:45.154Z,6.38
2023-01-07T09:11:13.299Z,6.38
2023-01-07T09:13:41.273Z,6.36
2023-01-07T09:16:09.405Z,6.45
2023-01-07T09:18:37.391Z,6.53
2023-01-07T09:21:05.520Z,6.61
2023-01-07T09:23:33.740Z,6.67
2023-01-07T09:26:01.894Z,6.72
2023-01-07T09:28:30.058Z,6.73
2023-01-07T09:30:59.108Z,6.65
2023-01-07T09:33:27.116Z,6.58
2023-01-07T09:35:57.715Z,6.59
2023-01-07T09:38:25.797Z,6.67
2023-01-07T09:40:56.830Z,6.72
2023-01-07T09:43:59.367Z,6.79
2023-01-07T09:46:33.646Z,6.88
2023-01-07T09:49:06.212Z,6.95
2023-01-07T09:51:42.042Z,7.05
2023-01-07T09:54:36.606Z,7.05
2023-01-07T09:57:07.001Z,7.04
2023-01-07T09:59:35.151Z,7.02
2023-01-07T10:02:21.469Z,7.02
2023-01-07T10:05:22.371Z,7.09
2023-01-07T10:08:29.475Z,7.24
2023-01-07T10:11:25.513Z,7.35
2023-01-07T10:13:59.682Z,7.48
2023-01-07T10:17:15.804Z,7.64
2023-01-07T10:19:43.737Z,7.85
2023-01-07T10:22:19.471Z,7.94
2023-01-07T10:25:04.521Z,7.95
2023-01-07T10:27:42.527Z,7.96
2023-01-07T10:30:21.482Z,7.95
2023-01-07T10:33:13.764Z,7.91
2023-01-07T10:35:42.004Z,7.97
2023-01-07T10:38:21.775Z,8.02
2023-01-07T10:40:58.209Z,8.06
2023-01-07T10:43:45.511Z,8.08
2023-01-07T10:47:03.861Z,8.17
2023-01-07T10:49:53.184Z,8.21
2023-01-07T10:52:58.843Z,8.24
2023-01-07T10:55:48.005Z,8.32
2023-01-07T10:58:16.069Z,8.35
2023-01-07T11:00:48.571Z,8.34
2023-01-07T11:03:23.433Z,8.39
2023-01-07T11:06:02.063Z,8.54
2023-01-07T11:08:39.701Z,8.68
2023-01-07T11:11:22.324Z,8.78
2023-01-07T11:14:14.675Z,8.80
2023-01-07T11:16:52.811Z,8.88
2023-01-07T11:19:42.441Z,9.00
2023-01-07T11:22:26.019Z,9.09
2023-01-07T11:24:58.150Z,9.20
2023-01-07T11:27:34.477Z,9.26
2023-01-07T11:30:10.925Z,9.33
2023-01-07T11:32:47.583Z,9.38
2023-01-07T11:35:15.601Z,9.46
2023-01-07T11:37:48.647Z,9.51
2023-01-07T11:40:22.813Z,9.60
2023-01-07T11:43:03.807Z,9.63
2023-01-07T11:46:19.345Z,9.62
2023-01-07T11:49:03.182Z,9.66
2023-01-07T11:51:40.430Z,9.63
2023-01-07T11:54:22.149Z,9.60
2023-01-07T11:56:55.240Z,9.60
2023-01-07T11:59:30.557Z,9.59
2023-01-07T12:02:01.514Z,9.59
2023-01-07T12:04:37.955Z,9.57
2023-01-07T12:07:16.705Z,9.61
2023-01-07T12:09:47.707Z,9.69
2023-01-07T12:12:31.864Z,9.80
2023-01-07T12:15:24.036Z,9.83
2023-01-07T12:18:17.355Z,9.90
2023-01-07T12:21:23.489Z,9.95
2023-01-07T12:24:06.204Z,10.01
2023-01-07T12:27:11.811Z,10.02
2023-01-07T12:29:58.699Z,10.08
2023-01-07T12:33:04.751Z,10.12
2023-01-07T12:35:45.517Z,10.05
2023-01-07T12:38:53.285Z,9.99
2023-01-07T12:41:54.293Z,9.94
2023-01-07T12:44:23.351Z,9.80
2023-01-07T12:47:30.715Z,9.78
2023-01-07T12:50:37.233Z,9.75
2023-01-07T12:53:28.749Z,9.72
2023-01-07T12:56:13.774Z,9.75
2023-01-07T12:59:45.613Z,9.77
2023-01-07T13:02:30.759Z,9.73
2023-01-07T13:05:23.939Z,9.70
2023-01-07T13:08:30.464Z,9.64
2023-01-07T13:11:42.745Z,9.62
2023-01-07T13:14:35.583Z,9.64
2023-01-07T13:17:28.590Z,9.63
2023-01-07T13:19:57.233Z,9.69
2023-01-07T13:22:31.315Z,9.71
2023-01-07T13:25:12.601Z,9.68
2023-01-07T13:28:18.387Z,9.67
2023-01-07T13:31:18.082Z,9.69
2023-01-07T13:34:16.454Z,9.74
2023-01-07T13:37:18.745Z,9.75
2023-01-07T13:40:22.260Z,9.75
2023-01-07T13:43:11.703Z,9.78
2023-01-07T13:45:49.339Z,9.81
2023-01-07T13:48:27.987Z,9.85
2023-01-07T13:51:06.156Z,9.85
2023-01-07T13:53:47.224Z,9.87
2023-01-07T13:56:18.005Z,9.89
2023-01-07T13:58:55.978Z,9.94
2023-01-07T14:01:27.321Z,9.94
2023-01-07T14:04:46.806Z,9.86
2023-01-07T14:07:14.847Z,9.77
2023-01-07T14:09:42.994Z,9.72
2023-01-07T14:12:59.361Z,9.66
2023-01-07T14:15:54.007Z,9.60
2023-01-07T14:18:44.096Z,9.54
2023-01-07T14:21:24.284Z,9.50
2023-01-07T14:24:10.270Z,9.46
2023-01-07T14:26:54.694Z,9.42
2023-01-07T14:29:46.252Z,9.37
2023-01-07T14:32:37.661Z,9.29
2023-01-07T14:35:09.468Z,9.19
2023-01-07T14:37:49.289Z,9.15
2023-01-07T14:40:26.410Z,9.13
2023-01-07T14:43:03.081Z,9.06
2023-01-07T14:45:37.130Z,8.97
2023-01-07T14:48:07.846Z,8.85
2023-01-07T14:50:46.131Z,8.76
2023-01-07T14:53:32.696Z,8.67
2023-01-07T14:56:22.789Z,8.59
2023-01-07T14:59:28.664Z,8.55
2023-01-07T15:02:11.051Z,8.50
2023-01-07T15:05:05.360Z,8.44
2023-01-07T15:07:40.179Z,8.45
2023-01-07T15:10:48.619Z,8.49
2023-01-07T15:13:41.977Z,8.48
2023-01-07T15:16:12.358Z,8.50
2023-01-07T15:18:56.804Z,8.49
2023-01-07T15:21:30.773Z,8.49
2023-01-07T15:24:28.051Z,8.45
2023-01-07T15:27:10.884Z,8.37
2023-01-07T15:29:54.578Z,8.35
2023-01-07T15:32:42.484Z,8.32
2023-01-07T15:35:30.637Z,8.26
2023-01-07T15:38:06.135Z,8.24
2023-01-07T15:40:34.118Z,8.19
2023-01-07T15:43:03.689Z,8.16
2023-01-07T15:45:31.651Z,8.12
2023-01-07T15:48:15.109Z,8.12
2023-01-07T15:50:48.181Z,8.17
2023-01-07T15:53:29.331Z,8.13
2023-01-07T15:56:16.266Z,8.04
2023-01-07T15:58:50.134Z,8.00
2023-01-07T16:01:27.535Z,8.00
2023-01-07T16:03:56.986Z,8.11
2023-01-07T16:06:31.203Z,8.18
2023-01-07T16:09:04.028Z,8.23
2023-01-07T16:11:34.534Z,8.25
2023-01-07T16:14:06.986Z,8.28
2023-01-07T16:16:34.999Z,8.30
2023-01-07T16:19:04.538Z,8.36
2023-01-07T16:21:40.911Z,8.34
2023-01-07T16:24:17.765Z,8.30
2023-01-07T16:26:51.390Z,8.26
2023-01-07T16:29:29.034Z,8.24
2023-01-07T16:32:00.051Z,8.25
2023-01-07T16:34:27.959Z,8.24
2023-01-07T16:37:00.172Z,8.26
2023-01-07T16:39:39.392Z,8.31
2023-01-07T16:42:29.642Z,8.29
2023-01-07T16:45:01.256Z,8.27
2023-01-07T16:47:33.752Z,8.23
2023-01-07T16:50:13.777Z,8.18
2023-01-07T16:52:58.074Z,8.08
2023-01-07T16:55:44.645Z,7.98
2023-01-07T16:58:29.071Z,7.93
2023-01-07T17:01:02.015Z,7.90
2023-01-07T17:03:46.064Z,7.87
2023-01-07T17:06:16.345Z,7.83
2023-01-07T17:08:50.564Z,7.77
2023-01-07T17:11:25.543Z,7.70
2023-01-07T17:13:55.090Z,7.65
2023-01-07T17:16:35.161Z,7.56
2023-01-07T17:19:27.241Z,7.42
2023-01-07T17:21:56.685Z,7.29
2023-01-07T17:24:27.557Z,7.20
2023-01-07T17:27:03.169Z,7.16
2023-01-07T17:29:39.468Z,7.11
2023-01-07T17:32:07.597Z,7.09
2023-01-07T17:34:38.228Z,7.11
2023-01-07T17:37:06.546Z,7.09
2023-01-07T17:39:34.629Z,7.06
2023-01-07T17:42:21.338Z,6.97
2023-01-07T17:44:51.969Z,6.93
2023-01-07T17:47:24.552Z,6.90
2023-01-07T17:49:52.414Z,6.87
2023-01-07T17:52:20.485Z,6.82
2023-01-07T17:54:48.610Z,6.73
2023-01-07T17:57:16.722Z,6.62
2023-01-07T17:59:50.227Z,6.52
2023-01-07T18:02:27.999Z,6.36
2023-01-07T18:04:58.494Z,6.23
2023-01-07T18:07:26.369Z,6.13
2023-01-07T18:09:54.291Z,6.05
2023-01-07T18:12:31.495Z,5.98
2023-01-07T18:15:03.327Z,5.92
2023-01-07T18:17:31.443Z,5.86
2023-01-07T18:19:59.372Z,5.80
2023-01-07T18:22:27.439Z,5.79
2023-01-07T18:24:55.576Z,5.74
2023-01-07T18:27:23.681Z,5.71
2023-01-07T18:29:51.624Z,5.69
2023-01-07T18:32:19.700Z,5.67
2023-01-07T18:34:47.627Z,5.62
2023-01-07T18:37:18.854Z,5.55
2023-01-07T18:39:46.836Z,5.50
2023-01-07T18:42:18.084Z,5.46
2023-01-07T18:44:46.083Z,5.41
2023-01-07T18:47:13.954Z,5.32
2023-01-07T18:49:41.821Z,5.22
2023-01-07T18:52:10.147Z,5.13
2023-01-07T18:54:43.575Z,5.05
2023-01-07T18:57:14.612Z,4.96
2023-01-07T18:59:42.752Z,4.89
2023-01-07T19:02:22.949Z,4.81
2023-01-07T19:04:53.563Z,4.77
2023-01-07T19:07:24.309Z,4.76
2023-01-07T19:09:52.399Z,4.72
2023-01-07T19:12:20.479Z,4.68
2023-01-07T19:14:48.547Z,4.64
2023-01-07T19:17:16.471Z,4.60
2023-01-07T19:19:48.582Z,4.56
2023-01-07T19:22:21.588Z,4.51
2023-01-07T19:24:49.748Z,4.43
2023-01-07T19:27:17.809Z,4.41
2023-01-07T19:29:45.875Z,4.38
2023-01-07T19:32:13.894Z,4.34
2023-01-07T19:34:41.826Z,4.30
2023-01-07T19:37:09.845Z,4.27
2023-01-07T19:39:37.893Z,4.25
2023-01-07T19:42:06.174Z,4.21
2023-01-07T19:44:39.203Z,4.17
2023-01-07T19:47:07.248Z,4.13
2023-01-07T19:49:36.116Z,4.08
2023-01-07T19:52:06.807Z,3.97
2023-01-07T19:54:37.774Z,3.90
2023-01-07T19:57:05.865Z,3.86
2023-01-07T19:59:37.612Z,3.83
2023-01-07T20:02:05.764Z,3.77
2023-01-07T20:04:34.773Z,3.72
2023-01-07T20:07:02.860Z,3.68
2023-01-07T20:09:30.997Z,3.60
2023-01-07T20:11:59.006Z,3.52
2023-01-07T20:14:26.905Z,3.43
2023-01-07T20:16:55.006Z,3.34
2023-01-07T20:19:25.989Z,3.22
2023-01-07T20:21:54.151Z,3.14
2023-01-07T20:24:22.149Z,3.07
2023-01-07T20:26:50.207Z,3.02
2023-01-07T20:29:18.164Z,3.01
2023-01-07T20:31:49.127Z,3.01
2023-01-07T20:34:17.401Z,3.02
2023-01-07T20:36:45.444Z,2.98
2023-01-07T20:39:13.291Z,2.89
2023-01-07T20:41:41.293Z,2.76
2023-01-07T20:44:14.855Z,2.65
2023-01-07T20:46:43.096Z,2.58
2023-01-07T20:49:13.545Z,2.48
2023-01-07T20:51:43.934Z,2.40
2023-01-07T20:54:15.837Z,2.31
2023-01-07T20:56:45.753Z,2.26
2023-01-07T20:59:18.400Z,2.23
2023-01-07T21:01:46.711Z,2.21
2023-01-07T21:04:17.472Z,2.17
2023-01-07T21:06:45.387Z,2.09
2023-01-07T21:09:13.479Z,2.05
2023-01-07T21:11:45.777Z,2.04
2023-01-07T21:14:13.719Z,2.05
2023-01-07T21:16:41.848Z,2.05
2023-01-07T21:19:09.941Z,2.05
2023-01-07T21:21:37.957Z,2.07
2023-01-07T21:24:05.977Z,2.06
2023-01-07T21:26:34.072Z,2.01
2023-01-07T21:29:02.028Z,1.99
2023-01-07T21:31:30.048Z,2.01
2023-01-07T21:34:00.988Z,1.99
2023-01-07T21:36:28.918Z,1.98
2023-01-07T21:39:00.870Z,1.97
2023-01-07T21:41:30.702Z,1.93
2023-01-07T21:43:58.578Z,1.88
2023-01-07T21:46:26.707Z,1.85
2023-01-07T21:48:57.736Z,1.88
2023-01-07T21:51:29.075Z,1.85
2023-01-07T21:54:00.196Z,1.82
2023-01-07T21:56:32.903Z,1.80
2023-01-07T21:59:03.887Z,1.78
2023-01-07T22:01:32.159Z,1.75
2023-01-07T22:04:06.206Z,1.74
2023-01-07T22:06:40.028Z,1.73
2023-01-07T22:09:15.214Z,1.65
2023-01-07T22:11:43.211Z,1.56
2023-01-07T22:14:17.025Z,1.54
2023-01-07T22:16:49.229Z,1.59
2023-01-07T22:19:17.299Z,1.61
2023-01-07T22:21:45.196Z,1.64
2023-01-07T22:24:14.625Z,1.70
2023-01-07T22:26:45.595Z,1.80
2023-01-07T22:29:17.497Z,1.91
2023-01-07T22:31:50.810Z,2.04
2023-01-07T22:34:21.970Z,2.16
2023-01-07T22:37:17.643Z,2.28
2023-01-07T22:40:01.246Z,2.39
2023-01-07T22:42:54.458Z,2.49
2023-01-07T22:45:55.124Z,2.63
2023-01-07T22:48:29.345Z,2.70
2023-01-07T22:51:06.352Z,2.78
2023-01-07T22:53:37.099Z,2.86
2023-01-07T22:56:08.878Z,2.89
2023-01-07T22:58:36.937Z,2.92
2023-01-07T23:01:05.007Z,2.96
2023-01-07T23:03:33.200Z,3.00
2023-01-07T23:06:06.922Z,3.03
2023-01-07T23:08:37.620Z,3.05
2023-01-07T23:11:08.813Z,3.04
2023-01-07T23:13:39.526Z,3.04
2023-01-07T23:16:07.811Z,3.04
2023-01-07T23:18:35.971Z,3.00
2023-01-07T23:21:07.177Z,3.02
2023-01-07T23:23:35.262Z,2.99
2023-01-07T23:26:03.240Z,2.95
2023-01-07T23:28:31.353Z,2.92
2023-01-07T23:31:02.320Z,2.92
2023-01-07T23:33:30.313Z,2.92
2023-01-07T23:36:08.844Z,2.89
2023-01-07T23:38:39.400Z,2.90
2023-01-07T23:41:11.607Z,2.87
2023-01-07T23:43:39.838Z,2.83
2023-01-07T23:46:10.986Z,2.75
2023-01-07T23:48:39.119Z,2.69
2023-01-07T23:51:10.868Z,2.67
2023-01-07T23:53:41.871Z,2.65
2023-01-07T23:56:11.514Z,2.59
2023-01-07T23:58:42.392Z,2.55
